createdAt,value
2018-05-08T00:02:19.045Z,16.80
2018-05-08T00:04:46.460Z,16.80
2018-05-08T00:07:13.870Z,16.80
2018-05-08T00:09:41.292Z,16.70
2018-05-08T00:12:09.480Z,16.70
2018-05-08T00:14:37.674Z,16.70
2018-05-08T00:17:05.085Z,16.70
2018-05-08T00:19:32.586Z,16.70
2018-05-08T00:22:00.017Z,16.70
2018-05-08T00:24:27.430Z,16.60
2018-05-08T00:26:55.653Z,16.60
2018-05-08T00:29:23.149Z,16.60
2018-05-08T00:31:50.564Z,16.60
2018-05-08T00:34:18.736Z,16.60
2018-05-08T00:36:46.157Z,16.60
2018-05-08T00:39:13.573Z,16.60
2018-05-08T00:41:40.992Z,16.60
2018-05-08T00:44:08.456Z,16.50
2018-05-08T00:46:35.874Z,16.40
2018-05-08T00:49:03.304Z,16.40
2018-05-08T00:51:30.717Z,16.40
2018-05-08T00:53:58.129Z,16.30
2018-05-08T00:56:25.556Z,16.30
2018-05-08T00:58:52.974Z,16.20
2018-05-08T01:01:20.389Z,16.20
2018-05-08T01:03:47.872Z,16.30
2018-05-08T01:06:16.113Z,16.30
2018-05-08T01:08:43.529Z,16.30
2018-05-08T01:11:10.941Z,16.30
2018-05-08T01:13:38.368Z,16.20
2018-05-08T01:16:07.337Z,16.10
2018-05-08T01:18:34.759Z,16.00
2018-05-08T01:21:02.929Z,16.00
2018-05-08T01:23:30.432Z,15.90
2018-05-08T01:25:57.905Z,16.00
2018-05-08T01:28:25.413Z,15.90
2018-05-08T01:30:52.828Z,15.90
2018-05-08T01:33:21.041Z,15.90
2018-05-08T01:35:48.449Z,15.90
2018-05-08T01:38:15.865Z,15.90
2018-05-08T01:40:43.280Z,15.90
2018-05-08T01:43:10.738Z,15.90
2018-05-08T01:45:38.209Z,15.90
2018-05-08T01:48:05.629Z,15.90
2018-05-08T01:50:33.800Z,15.80
2018-05-08T01:53:01.292Z,15.80
2018-05-08T01:55:29.469Z,15.80
2018-05-08T01:57:57.649Z,15.70
2018-05-08T02:00:25.070Z,15.70
2018-05-08T02:02:52.522Z,15.70
2018-05-08T02:05:19.948Z,15.60
2018-05-08T02:07:48.129Z,15.50
2018-05-08T02:10:15.546Z,15.50
2018-05-08T02:12:42.962Z,15.40
2018-05-08T02:15:10.390Z,15.40
2018-05-08T02:17:37.804Z,15.40
2018-05-08T02:20:05.220Z,15.30
2018-05-08T02:22:32.633Z,15.30
2018-05-08T02:25:00.063Z,15.20
2018-05-08T02:27:27.469Z,15.20
2018-05-08T02:29:54.889Z,15.20
2018-05-08T02:32:22.365Z,15.10
2018-05-08T02:34:49.781Z,15.10
2018-05-08T02:37:17.192Z,15.00
2018-05-08T02:39:45.385Z,15.00
2018-05-08T02:42:13.577Z,15.00
2018-05-08T02:44:40.997Z,15.00
2018-05-08T02:47:09.958Z,14.90
2018-05-08T02:49:37.397Z,14.90
2018-05-08T02:52:04.818Z,14.80
2018-05-08T02:54:32.230Z,14.80
2018-05-08T02:56:59.653Z,14.70
2018-05-08T02:59:27.065Z,14.70
2018-05-08T03:01:54.569Z,14.70
2018-05-08T03:04:21.999Z,14.70
2018-05-08T03:06:49.424Z,14.60
2018-05-08T03:09:16.826Z,14.60
2018-05-08T03:11:44.245Z,14.50
2018-05-08T03:14:11.661Z,14.50
2018-05-08T03:16:39.081Z,14.50
2018-05-08T03:19:06.483Z,14.50
2018-05-08T03:21:33.922Z,14.40
2018-05-08T03:24:01.369Z,14.40
2018-05-08T03:26:29.553Z,14.30
2018-05-08T03:28:57.778Z,14.30
2018-05-08T03:31:25.194Z,14.30
2018-05-08T03:33:52.601Z,14.20
2018-05-08T03:36:20.072Z,14.20
2018-05-08T03:38:47.490Z,14.10
2018-05-08T03:41:15.018Z,14.00
2018-05-08T03:43:42.429Z,14.00
2018-05-08T03:46:09.857Z,13.90
2018-05-08T03:48:37.274Z,13.90
2018-05-08T03:51:04.693Z,13.80
2018-05-08T03:53:32.114Z,13.70
2018-05-08T03:55:59.713Z,13.70
2018-05-08T03:58:27.073Z,13.60
2018-05-08T04:01:07.137Z,13.60
2018-05-08T04:03:46.492Z,13.50
2018-05-08T04:09:13.240Z,13.40
2018-05-08T04:11:40.682Z,13.40
2018-05-08T04:14:08.097Z,13.30
2018-05-08T04:16:35.526Z,13.30
2018-05-08T04:19:02.933Z,13.30
2018-05-08T04:21:31.873Z,13.30
2018-05-08T04:24:00.043Z,13.30
2018-05-08T04:26:27.554Z,13.30
2018-05-08T04:28:55.825Z,13.40
2018-05-08T04:31:24.004Z,13.40
2018-05-08T04:33:52.201Z,13.50
2018-05-08T04:36:20.384Z,13.50
2018-05-08T04:38:48.560Z,13.60
2018-05-08T04:41:16.854Z,13.60
2018-05-08T04:43:45.041Z,13.70
2018-05-08T04:46:13.232Z,13.70
2018-05-08T04:48:40.664Z,13.70
2018-05-08T04:51:08.194Z,13.70
2018-05-08T04:53:35.616Z,13.60
2018-05-08T04:56:03.033Z,13.50
2018-05-08T04:58:30.445Z,13.60
2018-05-08T05:00:57.860Z,13.60
2018-05-08T05:03:25.268Z,13.70
2018-05-08T05:05:52.693Z,13.80
2018-05-08T05:08:20.873Z,14.00
2018-05-08T05:10:49.061Z,14.10
2018-05-08T05:13:17.245Z,14.20
2018-05-08T05:15:45.448Z,14.30
2018-05-08T05:18:12.861Z,14.30
2018-05-08T05:20:40.285Z,14.40
2018-05-08T05:23:07.694Z,14.60
2018-05-08T05:25:35.112Z,14.70
2018-05-08T05:28:03.297Z,14.80
2018-05-08T05:30:31.485Z,15.00
2018-05-08T05:32:59.660Z,15.20
2018-05-08T05:35:27.872Z,15.30
2018-05-08T05:37:55.289Z,15.30
2018-05-08T05:40:22.701Z,15.50
2018-05-08T05:42:50.884Z,15.80
2018-05-08T05:45:19.065Z,15.90
2018-05-08T05:47:47.253Z,16.00
2018-05-08T05:50:15.440Z,16.10
2018-05-08T05:52:43.621Z,16.20
2018-05-08T05:55:11.845Z,16.40
2018-05-08T05:57:39.311Z,16.40
2018-05-08T06:00:06.798Z,16.60
2018-05-08T06:02:34.145Z,16.70
2018-05-08T06:05:01.561Z,16.80
2018-05-08T06:07:28.981Z,16.90
2018-05-08T06:09:56.457Z,17.10
2018-05-08T06:12:23.881Z,17.50
2018-05-08T06:14:51.292Z,17.80
2018-05-08T06:17:18.766Z,18.10
2018-05-08T06:19:46.125Z,18.50
2018-05-08T06:22:13.549Z,19.20
2018-05-08T06:24:40.965Z,20.50
2018-05-08T06:27:08.442Z,22.10
2018-05-08T06:29:35.848Z,23.60
2018-05-08T06:32:03.265Z,24.40
2018-05-08T06:34:30.746Z,25.40
2018-05-08T06:36:58.173Z,26.40
2018-05-08T06:39:25.650Z,27.20
2018-05-08T06:41:53.030Z,28.10
2018-05-08T06:44:21.216Z,30.10
2018-05-08T06:46:49.400Z,31.10
2018-05-08T06:49:17.622Z,31.60
2018-05-08T06:51:45.040Z,31.60
2018-05-08T06:54:12.465Z,32.50
2018-05-08T06:56:39.906Z,32.40
2018-05-08T06:59:08.081Z,33.90
2018-05-08T07:01:36.310Z,34.90
2018-05-08T07:04:03.717Z,34.80
2018-05-08T07:06:31.141Z,35.80
2018-05-08T07:08:58.558Z,36.20
2018-05-08T07:11:26.041Z,36.10
2018-05-08T07:13:54.221Z,35.80
2018-05-08T07:16:21.837Z,35.70
2018-05-08T07:18:49.245Z,34.50
2018-05-08T07:21:16.678Z,33.90
2018-05-08T07:23:44.132Z,32.70
2018-05-08T07:26:11.576Z,31.30
2018-05-08T07:28:39.002Z,30.90
2018-05-08T07:31:06.455Z,30.20
2018-05-08T07:33:34.622Z,29.20
2018-05-08T07:36:02.825Z,29.00
2018-05-08T07:38:30.293Z,28.90
2018-05-08T07:40:57.775Z,28.90
2018-05-08T07:43:25.180Z,28.10
2018-05-08T07:45:52.607Z,27.80
2018-05-08T07:48:20.017Z,27.40
2018-05-08T07:50:47.441Z,27.30
2018-05-08T07:53:14.908Z,27.30
2018-05-08T07:55:42.378Z,27.20
2018-05-08T07:58:09.809Z,27.20
2018-05-08T08:00:37.224Z,27.30
2018-05-08T08:03:04.640Z,26.60
2018-05-08T08:05:32.064Z,26.60
2018-05-08T08:07:59.480Z,26.80
2018-05-08T08:10:26.897Z,27.10
2018-05-08T08:12:54.317Z,27.30
2018-05-08T08:15:21.733Z,27.50
2018-05-08T08:17:49.152Z,27.70
2018-05-08T08:20:16.672Z,27.90
2018-05-08T08:22:44.101Z,28.10
2018-05-08T08:25:11.510Z,28.00
2018-05-08T08:27:38.941Z,28.10
2018-05-08T08:30:06.362Z,28.20
2018-05-08T08:32:33.808Z,28.40
2018-05-08T08:35:01.258Z,28.60
2018-05-08T08:37:28.685Z,28.70
2018-05-08T08:39:56.111Z,28.80
2018-05-08T08:42:24.322Z,28.60
2018-05-08T08:44:51.735Z,28.50
2018-05-08T08:47:19.154Z,28.40
2018-05-08T08:49:46.569Z,28.40
2018-05-08T08:52:13.989Z,28.20
2018-05-08T08:54:41.487Z,28.20
2018-05-08T08:57:08.910Z,27.50
2018-05-08T08:59:37.091Z,26.00
2018-05-08T09:02:05.278Z,26.20
2018-05-08T09:04:33.462Z,26.50
2018-05-08T09:07:01.666Z,26.40
2018-05-08T09:09:29.870Z,26.40
2018-05-08T09:11:57.314Z,26.30
2018-05-08T09:14:25.489Z,27.30
2018-05-08T09:16:53.672Z,27.60
2018-05-08T09:19:21.289Z,27.60
2018-05-08T09:21:48.745Z,27.80
2018-05-08T09:24:16.205Z,28.30
2018-05-08T09:26:44.386Z,28.40
2018-05-08T09:29:12.568Z,28.00
2018-05-08T09:31:39.999Z,28.00
2018-05-08T09:34:07.545Z,28.20
2018-05-08T09:36:34.964Z,28.10
2018-05-08T09:39:02.386Z,28.30
2018-05-08T09:41:29.801Z,28.70
2018-05-08T09:43:57.229Z,29.20
2018-05-08T09:46:24.657Z,29.60
2018-05-08T09:48:52.950Z,30.40
2018-05-08T09:51:20.334Z,30.40
2018-05-08T09:53:47.753Z,30.50
2018-05-08T09:56:15.185Z,30.80
2018-05-08T09:58:42.654Z,31.10
2018-05-08T10:01:10.735Z,31.10
2018-05-08T10:03:38.153Z,31.30
2018-05-08T10:06:05.566Z,31.50
2018-05-08T10:08:33.781Z,31.50
2018-05-08T10:11:01.201Z,31.60
2018-05-08T10:13:29.450Z,30.80
2018-05-08T10:15:56.883Z,30.70
2018-05-08T10:18:24.340Z,30.40
2018-05-08T10:20:51.757Z,30.10
2018-05-08T10:23:19.201Z,30.00
2018-05-08T10:25:46.649Z,30.00
2018-05-08T10:28:14.073Z,29.80
2018-05-08T10:30:42.171Z,29.80
2018-05-08T10:33:09.578Z,30.40
2018-05-08T10:35:36.993Z,30.70
2018-05-08T10:38:04.424Z,30.80
2018-05-08T10:40:31.840Z,31.00
2018-05-08T10:42:59.273Z,31.00
2018-05-08T10:45:26.688Z,31.20
2018-05-08T10:47:54.119Z,31.70
2018-05-08T10:50:21.580Z,32.10
2018-05-08T10:52:49.009Z,32.00
2018-05-08T10:55:17.193Z,31.20
2018-05-08T10:57:45.389Z,30.70
2018-05-08T11:00:13.596Z,29.90
2018-05-08T11:02:41.073Z,29.80
2018-05-08T11:05:08.541Z,30.10
2018-05-08T11:07:35.964Z,30.50
2018-05-08T11:10:03.382Z,30.40
2018-05-08T11:12:30.885Z,30.60
2018-05-08T11:14:58.221Z,30.80
2018-05-08T11:17:25.662Z,31.10
2018-05-08T11:19:53.845Z,29.00
2018-05-08T11:22:22.054Z,29.30
2018-05-08T11:24:50.219Z,29.50
2018-05-08T11:27:17.830Z,29.50
2018-05-08T11:29:45.232Z,29.00
2018-05-08T11:32:12.669Z,28.90
2018-05-08T11:34:40.137Z,29.00
2018-05-08T11:37:08.316Z,29.60
2018-05-08T11:39:35.794Z,29.60
2018-05-08T11:42:03.256Z,29.30
2018-05-08T11:44:30.681Z,29.90
2018-05-08T11:46:58.097Z,30.40
2018-05-08T11:49:25.513Z,30.80
2018-05-08T11:51:52.989Z,31.00
2018-05-08T11:54:20.366Z,30.70
2018-05-08T11:56:47.868Z,30.60
2018-05-08T11:59:15.293Z,30.50
2018-05-08T12:01:42.712Z,31.00
2018-05-08T12:04:10.141Z,31.70
2018-05-08T12:06:37.658Z,32.00
2018-05-08T12:09:05.918Z,32.60
2018-05-08T12:11:34.093Z,32.30
2018-05-08T12:14:02.286Z,32.00
2018-05-08T12:16:30.511Z,31.90
2018-05-08T12:18:57.956Z,31.80
2018-05-08T12:21:26.130Z,32.40
2018-05-08T12:23:54.321Z,32.40
2018-05-08T12:26:22.504Z,32.00
2018-05-08T12:28:50.696Z,32.10
2018-05-08T12:31:18.889Z,32.40
2018-05-08T12:33:47.076Z,32.10
2018-05-08T12:36:15.281Z,31.80
2018-05-08T12:38:43.475Z,32.00
2018-05-08T12:41:10.889Z,32.00
2018-05-08T12:43:38.317Z,31.60
2018-05-08T12:46:05.737Z,31.80
2018-05-08T12:48:33.162Z,32.10
2018-05-08T12:51:00.618Z,31.70
2018-05-08T12:53:28.042Z,31.40
2018-05-08T12:55:55.478Z,31.80
2018-05-08T12:58:22.909Z,32.20
2018-05-08T13:00:50.329Z,32.40
2018-05-08T13:03:17.758Z,32.00
2018-05-08T13:05:45.179Z,32.30
2018-05-08T13:08:12.605Z,32.30
2018-05-08T13:10:40.025Z,32.00
2018-05-08T13:13:08.969Z,30.90
2018-05-08T13:15:36.394Z,30.90
2018-05-08T13:18:03.816Z,31.00
2018-05-08T13:20:31.285Z,30.50
2018-05-08T13:22:58.706Z,30.10
2018-05-08T13:25:26.130Z,29.80
2018-05-08T13:27:53.573Z,30.00
2018-05-08T13:30:21.744Z,29.80
2018-05-08T13:32:49.938Z,30.10
2018-05-08T13:35:18.122Z,30.20
2018-05-08T13:37:46.321Z,30.40
2018-05-08T13:40:14.496Z,30.10
2018-05-08T13:42:42.721Z,30.00
2018-05-08T13:45:10.185Z,30.00
2018-05-08T13:47:37.645Z,29.90
2018-05-08T13:50:05.219Z,29.80
2018-05-08T13:52:32.641Z,29.80
2018-05-08T13:55:00.142Z,29.60
2018-05-08T13:57:27.493Z,29.30
2018-05-08T13:59:54.929Z,29.20
2018-05-08T14:02:22.380Z,29.20
2018-05-08T14:04:49.790Z,29.00
2018-05-08T14:07:17.204Z,28.90
2018-05-08T14:09:44.625Z,29.00
2018-05-08T14:12:12.039Z,28.90
2018-05-08T14:14:39.521Z,28.80
2018-05-08T14:17:06.956Z,28.90
2018-05-08T14:19:34.367Z,29.00
2018-05-08T14:22:01.782Z,29.00
2018-05-08T14:24:29.211Z,29.00
2018-05-08T14:26:56.642Z,29.00
2018-05-08T14:29:24.837Z,29.70
2018-05-08T14:31:52.258Z,29.60
2018-05-08T14:34:19.686Z,29.50
2018-05-08T14:36:47.101Z,29.30
2018-05-08T14:39:14.520Z,29.30
2018-05-08T14:41:41.941Z,29.30
2018-05-08T14:44:09.474Z,29.50
2018-05-08T14:46:36.890Z,29.30
2018-05-08T14:49:04.317Z,29.20
2018-05-08T14:51:31.787Z,29.40
2018-05-08T14:53:59.209Z,29.60
2018-05-08T14:56:26.727Z,29.80
2018-05-08T14:58:54.139Z,29.60
2018-05-08T15:01:21.553Z,29.40
2018-05-08T15:03:48.977Z,29.30
2018-05-08T15:06:16.397Z,28.90
2018-05-08T15:08:43.826Z,28.60
2018-05-08T15:11:11.346Z,28.60
2018-05-08T15:13:38.809Z,28.50
2018-05-08T15:16:06.221Z,28.40
2018-05-08T15:18:33.650Z,28.30
2018-05-08T15:21:01.070Z,28.20
2018-05-08T15:23:28.509Z,28.20
2018-05-08T15:25:55.929Z,28.00
2018-05-08T15:28:24.113Z,27.90
2018-05-08T15:30:52.292Z,27.90
2018-05-08T15:33:19.717Z,27.80
2018-05-08T15:35:47.132Z,28.00
2018-05-08T15:38:15.321Z,28.00
2018-05-08T15:40:42.735Z,27.90
2018-05-08T15:43:10.301Z,27.90
2018-05-08T15:45:38.464Z,27.80
2018-05-08T15:48:06.649Z,27.70
2018-05-08T15:50:34.833Z,27.80
2018-05-08T15:53:03.048Z,27.80
2018-05-08T15:55:31.205Z,27.60
2018-05-08T15:57:58.707Z,27.60
2018-05-08T16:00:26.166Z,27.40
2018-05-08T16:02:53.597Z,27.40
2018-05-08T16:05:22.541Z,27.40
2018-05-08T16:07:49.956Z,27.40
2018-05-08T16:10:17.373Z,27.30
2018-05-08T16:12:44.785Z,27.40
2018-05-08T16:15:12.225Z,27.50
2018-05-08T16:17:39.621Z,27.50
2018-05-08T16:20:07.120Z,27.40
2018-05-08T16:22:35.229Z,27.30
2018-05-08T16:25:03.437Z,27.20
2018-05-08T16:27:30.845Z,27.20
2018-05-08T16:29:58.375Z,27.20
2018-05-08T16:32:25.829Z,27.30
2018-05-08T16:34:54.026Z,27.00
2018-05-08T16:37:21.446Z,27.00
2018-05-08T16:39:48.868Z,27.00
2018-05-08T16:42:16.448Z,26.80
2018-05-08T16:44:44.609Z,26.70
2018-05-08T16:47:12.797Z,26.60
2018-05-08T16:49:40.996Z,26.60
2018-05-08T16:52:08.405Z,26.60
2018-05-08T16:54:35.834Z,26.50
2018-05-08T16:57:03.250Z,26.30
2018-05-08T16:59:30.676Z,26.20
2018-05-08T17:01:58.116Z,26.20
2018-05-08T17:04:26.297Z,26.10
2018-05-08T17:06:53.713Z,26.10
2018-05-08T17:09:21.117Z,26.10
2018-05-08T17:11:48.555Z,26.00
2018-05-08T17:14:15.959Z,25.90
2018-05-08T17:16:43.378Z,26.00
2018-05-08T17:19:10.877Z,26.00
2018-05-08T17:21:38.269Z,25.90
2018-05-08T17:24:05.677Z,25.90
2018-05-08T17:26:33.095Z,25.90
2018-05-08T17:29:00.523Z,26.00
2018-05-08T17:31:28.692Z,26.00
2018-05-08T17:33:56.877Z,26.00
2018-05-08T17:36:25.060Z,26.00
2018-05-08T17:38:53.237Z,26.00
2018-05-08T17:41:20.656Z,26.00
2018-05-08T17:43:48.064Z,25.90
2018-05-08T17:46:15.486Z,25.90
2018-05-08T17:48:42.893Z,25.70
2018-05-08T17:51:10.317Z,25.60
2018-05-08T17:53:37.798Z,25.50
2018-05-08T17:56:05.266Z,25.50
2018-05-08T17:58:32.747Z,25.60
2018-05-08T18:01:00.145Z,25.60
2018-05-08T18:03:27.652Z,25.60
2018-05-08T18:05:55.830Z,25.50
2018-05-08T18:08:24.022Z,25.30
2018-05-08T18:10:52.198Z,25.20
2018-05-08T18:13:19.625Z,25.20
2018-05-08T18:15:47.070Z,25.00
2018-05-08T18:18:14.546Z,24.90
2018-05-08T18:20:41.958Z,24.80
2018-05-08T18:23:09.388Z,24.70
2018-05-08T18:25:36.989Z,24.50
2018-05-08T18:28:04.316Z,24.40
2018-05-08T18:30:31.728Z,24.20
2018-05-08T18:32:59.140Z,24.10
2018-05-08T18:35:27.452Z,23.80
2018-05-08T18:37:54.873Z,23.80
2018-05-08T18:40:22.293Z,23.70
2018-05-08T18:42:49.717Z,23.60
2018-05-08T18:45:17.904Z,23.30
2018-05-08T18:47:45.320Z,23.30
2018-05-08T18:50:12.787Z,23.20
2018-05-08T18:52:40.254Z,23.00
2018-05-08T18:55:07.688Z,22.90
2018-05-08T18:57:35.128Z,22.80
2018-05-08T19:00:08.299Z,22.60
2018-05-08T19:02:35.709Z,22.50
2018-05-08T19:05:03.129Z,22.30
2018-05-08T19:07:30.621Z,22.20
2018-05-08T19:09:58.042Z,22.10
2018-05-08T19:12:25.454Z,22.00
2018-05-08T19:14:58.629Z,21.80
2018-05-08T19:17:26.800Z,21.60
2018-05-08T19:19:59.983Z,21.50
2018-05-08T19:22:27.391Z,21.40
2018-05-08T19:24:54.813Z,21.30
2018-05-08T19:27:22.263Z,21.20
2018-05-08T19:29:55.285Z,21.10
2018-05-08T19:32:22.701Z,21.00
2018-05-08T19:34:56.546Z,20.80
2018-05-08T19:37:29.622Z,20.80
2018-05-08T19:39:57.841Z,20.50
2018-05-08T19:42:25.258Z,20.50
2018-05-08T19:44:52.692Z,20.50
2018-05-08T19:47:20.103Z,20.40
2018-05-08T19:49:47.540Z,20.30
2018-05-08T19:52:14.950Z,20.20
2018-05-08T19:54:42.379Z,20.10
2018-05-08T19:57:09.783Z,20.00
2018-05-08T19:59:37.403Z,20.00
2018-05-08T20:02:05.560Z,19.90
2018-05-08T20:04:33.741Z,19.80
2018-05-08T20:07:01.925Z,19.80
2018-05-08T20:09:29.341Z,19.80
2018-05-08T20:11:56.762Z,19.70
2018-05-08T20:14:24.262Z,19.70
2018-05-08T20:16:51.669Z,19.60
2018-05-08T20:19:19.085Z,19.50
2018-05-08T20:21:47.257Z,19.30
2018-05-08T20:24:14.761Z,19.30
2018-05-08T20:26:42.237Z,19.20
2018-05-08T20:29:10.389Z,19.20
2018-05-08T20:31:38.582Z,19.10
2018-05-08T20:34:06.768Z,19.10
2018-05-08T20:36:34.961Z,19.00
2018-05-08T20:39:03.146Z,19.00
2018-05-08T20:41:31.333Z,18.90
2018-05-08T20:43:59.505Z,18.80
2018-05-08T20:46:26.929Z,18.90
2018-05-08T20:48:54.349Z,18.80
2018-05-08T20:51:23.269Z,18.70
2018-05-08T20:53:51.445Z,18.70
2018-05-08T20:56:18.856Z,18.70
2018-05-08T20:58:46.269Z,18.70
2018-05-08T21:01:13.749Z,18.60
2018-05-08T21:03:41.102Z,18.60
2018-05-08T21:06:08.523Z,18.50
2018-05-08T21:08:35.933Z,18.50
2018-05-08T21:11:03.344Z,18.50
2018-05-08T21:13:31.521Z,18.40
2018-05-08T21:15:59.735Z,18.30
2018-05-08T21:18:27.144Z,18.30
2018-05-08T21:20:54.575Z,18.30
2018-05-08T21:23:21.980Z,18.30
2018-05-08T21:25:49.402Z,18.20
2018-05-08T21:28:22.564Z,18.20
2018-05-08T21:30:55.794Z,18.20
2018-05-08T21:33:23.960Z,18.10
2018-05-08T21:35:51.383Z,18.10
2018-05-08T21:38:18.785Z,18.10
2018-05-08T21:40:46.218Z,18.10
2018-05-08T21:43:13.613Z,18.10
2018-05-08T21:45:41.029Z,18.10
2018-05-08T21:48:09.238Z,18.00
2018-05-08T21:50:36.652Z,18.00
2018-05-08T21:53:04.069Z,18.10
2018-05-08T21:55:31.497Z,18.00
2018-05-08T21:57:58.906Z,18.00
2018-05-08T22:00:26.326Z,18.00
2018-05-08T22:02:53.737Z,17.90
2018-05-08T22:05:21.926Z,17.90
2018-05-08T22:07:50.106Z,17.90
2018-05-08T22:10:18.933Z,17.90
2018-05-08T22:12:46.333Z,17.80
2018-05-08T22:15:13.775Z,17.90
2018-05-08T22:17:41.188Z,17.80
2018-05-08T22:20:08.611Z,17.80
2018-05-08T22:22:36.041Z,17.70
2018-05-08T22:25:03.458Z,17.50
2018-05-08T22:27:30.909Z,17.40
2018-05-08T22:29:58.327Z,17.40
2018-05-08T22:32:25.740Z,17.40
2018-05-08T22:34:53.160Z,17.30
2018-05-08T22:37:20.569Z,17.20
2018-05-08T22:39:48.745Z,17.20
2018-05-08T22:42:16.935Z,17.10
2018-05-08T22:44:45.122Z,17.10
2018-05-08T22:47:13.309Z,17.10
2018-05-08T22:49:41.522Z,17.10
2018-05-08T22:52:08.941Z,17.00
2018-05-08T22:54:36.345Z,17.10
2018-05-08T22:57:04.537Z,17.10
2018-05-08T22:59:31.944Z,17.10
2018-05-08T23:01:59.365Z,17.10
2018-05-08T23:04:27.542Z,17.10
2018-05-08T23:06:54.956Z,17.10
2018-05-08T23:09:22.370Z,17.20
2018-05-08T23:11:49.797Z,17.20
2018-05-08T23:14:17.208Z,17.20
2018-05-08T23:16:44.635Z,17.10
2018-05-08T23:19:12.038Z,17.10
2018-05-08T23:21:39.452Z,17.00
2018-05-08T23:24:06.857Z,17.00
2018-05-08T23:26:34.301Z,16.90
2018-05-08T23:29:02.452Z,16.80
2018-05-08T23:31:30.670Z,16.80
2018-05-08T23:33:58.146Z,16.80
2018-05-08T23:36:25.556Z,16.80
2018-05-08T23:38:52.978Z,16.90
2018-05-08T23:41:20.452Z,16.90
2018-05-08T23:43:47.857Z,16.90
2018-05-08T23:46:15.278Z,16.90
2018-05-08T23:48:42.758Z,16.90
2018-05-08T23:51:10.188Z,17.00
2018-05-08T23:53:37.698Z,17.00
2018-05-08T23:56:05.113Z,17.00
2018-05-08T23:58:32.538Z,17.10
